createdAt,value
2022-10-26T00:01:33.450Z,69.60
2022-10-26T00:04:00.054Z,69.44
2022-10-26T00:06:26.803Z,69.29
2022-10-26T00:08:53.337Z,69.17
2022-10-26T00:11:19.981Z,69.12
2022-10-26T00:13:47.684Z,69.16
2022-10-26T00:16:24.463Z,68.54
2022-10-26T00:18:51.193Z,69.02
2022-10-26T00:21:18.383Z,69.06
2022-10-26T00:23:45.170Z,69.02
2022-10-26T00:26:12.194Z,69.02
2022-10-26T00:28:38.941Z,69.16
2022-10-26T00:31:08.492Z,68.93
2022-10-26T00:33:35.545Z,69.04
2022-10-26T00:36:02.226Z,68.98
2022-10-26T00:38:28.799Z,68.93
2022-10-26T00:40:55.530Z,68.83
2022-10-26T00:43:21.966Z,68.63
2022-10-26T00:45:55.471Z,68.17
2022-10-26T00:48:28.640Z,68.12
2022-10-26T00:50:58.728Z,68.38
2022-10-26T00:53:25.566Z,68.58
2022-10-26T00:55:53.937Z,68.28
2022-10-26T00:58:21.798Z,68.31
2022-10-26T01:03:31.819Z,68.30
2022-10-26T01:05:58.782Z,68.23
2022-10-26T01:08:26.484Z,68.31
2022-10-26T01:10:53.361Z,68.41
2022-10-26T01:13:20.587Z,68.50
2022-10-26T01:16:21.924Z,67.78
2022-10-26T01:19:23.686Z,67.81
2022-10-26T01:22:06.691Z,67.95
2022-10-26T01:24:41.623Z,67.97
2022-10-26T01:27:11.226Z,68.12
2022-10-26T01:29:51.108Z,68.12
2022-10-26T01:32:20.216Z,68.59
2022-10-26T01:35:18.775Z,67.94
2022-10-26T01:37:57.775Z,68.16
2022-10-26T01:40:34.723Z,68.28
2022-10-26T01:43:05.713Z,68.65
2022-10-26T01:45:35.233Z,68.78
2022-10-26T01:48:04.312Z,68.44
2022-10-26T01:50:32.268Z,68.78
2022-10-26T01:52:58.762Z,68.76
2022-10-26T01:55:51.069Z,68.07
2022-10-26T01:58:54.804Z,67.96
2022-10-26T02:01:46.094Z,68.12
2022-10-26T02:04:31.105Z,68.00
2022-10-26T02:07:02.160Z,68.38
2022-10-26T02:09:43.905Z,68.55
2022-10-26T02:12:40.461Z,67.65
2022-10-26T02:15:31.585Z,67.54
2022-10-26T02:18:06.442Z,68.20
2022-10-26T02:20:44.605Z,67.44
2022-10-26T02:23:12.795Z,68.23
2022-10-26T02:25:47.890Z,67.68
2022-10-26T02:28:19.920Z,67.75
2022-10-26T02:30:52.401Z,67.88
2022-10-26T02:33:21.105Z,68.00
2022-10-26T02:35:52.629Z,67.54
2022-10-26T02:38:21.377Z,68.01
2022-10-26T02:40:51.440Z,67.79
2022-10-26T02:43:19.828Z,68.22
2022-10-26T02:45:54.046Z,67.77
2022-10-26T02:48:21.385Z,68.28
2022-10-26T02:51:00.119Z,68.39
2022-10-26T02:53:51.873Z,67.97
2022-10-26T02:56:24.574Z,67.70
2022-10-26T02:58:58.077Z,67.96
2022-10-26T03:01:25.338Z,68.50
2022-10-26T03:03:51.954Z,68.62
2022-10-26T03:06:22.846Z,68.12
2022-10-26T03:08:49.951Z,68.09
2022-10-26T03:11:17.186Z,67.90
2022-10-26T03:13:44.139Z,67.91
2022-10-26T03:16:11.549Z,68.03
2022-10-26T03:18:38.065Z,68.08
2022-10-26T03:21:04.769Z,68.20
2022-10-26T03:23:31.265Z,68.41
2022-10-26T03:25:59.012Z,68.42
2022-10-26T03:28:25.959Z,68.49
2022-10-26T03:30:52.492Z,68.63
2022-10-26T03:33:19.021Z,68.51
2022-10-26T03:35:45.646Z,68.66
2022-10-26T03:38:15.913Z,68.57
2022-10-26T03:40:42.697Z,68.69
2022-10-26T03:43:09.258Z,68.59
2022-10-26T03:45:35.719Z,68.42
2022-10-26T03:48:02.187Z,68.50
2022-10-26T03:50:28.799Z,68.51
2022-10-26T03:52:55.252Z,68.48
2022-10-26T03:55:21.776Z,68.63
2022-10-26T03:57:48.248Z,68.57
2022-10-26T04:00:16.849Z,68.54
2022-10-26T04:02:44.991Z,68.74
2022-10-26T04:05:11.454Z,68.03
2022-10-26T04:07:37.962Z,68.72
2022-10-26T04:10:05.628Z,68.76
2022-10-26T04:12:32.224Z,68.65
2022-10-26T04:14:58.752Z,68.51
2022-10-26T04:17:25.323Z,68.69
2022-10-26T04:19:51.788Z,68.42
2022-10-26T04:22:18.287Z,68.38
2022-10-26T04:24:44.832Z,68.34
2022-10-26T04:27:11.282Z,68.20
2022-10-26T04:29:37.768Z,67.94
2022-10-26T04:32:04.602Z,68.05
2022-10-26T04:34:31.076Z,67.92
2022-10-26T04:36:57.538Z,68.26
2022-10-26T04:39:24.198Z,68.05
2022-10-26T04:41:50.668Z,68.10
2022-10-26T04:44:17.329Z,67.99
2022-10-26T04:46:44.050Z,68.07
2022-10-26T04:49:10.740Z,68.31
2022-10-26T04:51:37.229Z,68.37
2022-10-26T04:54:03.867Z,68.48
2022-10-26T04:56:30.542Z,68.53
2022-10-26T04:58:57.298Z,68.48
2022-10-26T05:01:24.046Z,68.53
2022-10-26T05:03:51.485Z,68.74
2022-10-26T05:06:18.003Z,68.66
2022-10-26T05:08:44.703Z,68.57
2022-10-26T05:11:11.280Z,68.58
2022-10-26T05:13:37.794Z,68.49
2022-10-26T05:16:04.625Z,68.70
2022-10-26T05:18:31.183Z,68.60
2022-10-26T05:20:57.678Z,68.56
2022-10-26T05:23:24.379Z,68.66
2022-10-26T05:25:51.237Z,68.63
2022-10-26T05:28:18.320Z,68.71
2022-10-26T05:30:46.243Z,67.78
2022-10-26T05:33:14.319Z,67.70
2022-10-26T05:35:41.263Z,67.97
2022-10-26T05:38:09.528Z,68.02
2022-10-26T05:40:36.550Z,67.91
2022-10-26T05:43:03.118Z,67.92
2022-10-26T05:45:30.190Z,68.22
2022-10-26T05:47:59.959Z,68.42
2022-10-26T05:50:29.166Z,68.57
2022-10-26T05:52:55.730Z,68.52
2022-10-26T05:55:22.867Z,68.80
2022-10-26T05:57:50.058Z,68.90
2022-10-26T06:00:26.135Z,68.67
2022-10-26T06:03:23.854Z,68.74
2022-10-26T06:05:52.083Z,69.00
2022-10-26T06:08:19.361Z,68.58
2022-10-26T06:10:46.872Z,68.54
2022-10-26T06:13:13.708Z,68.98
2022-10-26T06:15:58.158Z,68.89
2022-10-26T06:18:49.683Z,69.03
2022-10-26T06:21:16.168Z,69.37
2022-10-26T06:23:54.738Z,69.21
2022-10-26T06:26:42.741Z,69.35
2022-10-26T06:29:55.844Z,69.43
2022-10-26T06:32:24.114Z,70.16
2022-10-26T06:34:56.872Z,70.17
2022-10-26T06:37:24.940Z,70.25
2022-10-26T06:39:54.693Z,70.33
2022-10-26T06:42:21.706Z,70.39
2022-10-26T06:44:48.875Z,70.39
2022-10-26T06:47:24.551Z,70.12
2022-10-26T06:49:59.587Z,70.06
2022-10-26T06:52:38.747Z,69.87
2022-10-26T06:55:05.881Z,70.34
2022-10-26T06:57:35.629Z,70.24
2022-10-26T07:00:06.655Z,70.17
2022-10-26T07:02:33.297Z,70.67
2022-10-26T07:04:59.904Z,70.50
2022-10-26T07:07:29.249Z,70.53
2022-10-26T07:09:56.020Z,70.85
2022-10-26T07:12:22.565Z,70.74
2022-10-26T07:14:49.100Z,70.47
2022-10-26T07:17:15.600Z,70.56
2022-10-26T07:19:42.081Z,70.60
2022-10-26T07:22:08.577Z,70.81
2022-10-26T07:24:35.157Z,70.70
2022-10-26T07:27:01.725Z,70.53
2022-10-26T07:29:28.354Z,70.44
2022-10-26T07:31:54.951Z,70.29
2022-10-26T07:34:21.551Z,70.25
2022-10-26T07:36:48.006Z,70.06
2022-10-26T07:39:14.512Z,69.79
2022-10-26T07:41:41.255Z,69.94
2022-10-26T07:44:07.705Z,69.79
2022-10-26T07:46:34.210Z,69.77
2022-10-26T07:49:00.800Z,69.68
2022-10-26T07:51:27.556Z,69.84
2022-10-26T07:53:54.015Z,69.96
2022-10-26T07:56:20.529Z,69.78
2022-10-26T07:58:46.984Z,69.81
2022-10-26T08:01:15.080Z,69.96
2022-10-26T08:03:42.244Z,70.15
2022-10-26T08:06:08.842Z,69.84
2022-10-26T08:08:35.380Z,69.71
2022-10-26T08:11:02.610Z,69.71
2022-10-26T08:13:29.458Z,69.53
2022-10-26T08:15:59.420Z,68.83
2022-10-26T08:18:25.978Z,69.52
2022-10-26T08:20:53.296Z,69.36
2022-10-26T08:23:20.352Z,69.14
2022-10-26T08:25:46.895Z,68.90
2022-10-26T08:28:13.807Z,69.09
2022-10-26T08:30:40.319Z,68.88
2022-10-26T08:33:08.100Z,68.62
2022-10-26T08:35:34.591Z,68.34
2022-10-26T08:38:01.134Z,68.46
2022-10-26T08:40:32.277Z,67.64
2022-10-26T08:43:18.570Z,67.53
2022-10-26T08:45:54.728Z,67.12
2022-10-26T08:48:27.075Z,67.73
2022-10-26T08:50:56.915Z,68.16
2022-10-26T08:53:52.630Z,67.22
2022-10-26T08:56:21.461Z,68.47
2022-10-26T08:59:14.357Z,67.52
2022-10-26T09:01:41.033Z,68.27
2022-10-26T09:04:12.431Z,67.29
2022-10-26T09:06:47.979Z,66.64
2022-10-26T09:09:59.106Z,66.23
2022-10-26T09:12:53.754Z,66.29
2022-10-26T09:16:00.301Z,66.98
2022-10-26T09:18:51.791Z,66.09
2022-10-26T09:21:31.141Z,67.10
2022-10-26T09:24:19.311Z,66.74
2022-10-26T09:26:54.613Z,65.45
2022-10-26T09:29:27.663Z,66.03
2022-10-26T09:31:56.841Z,67.46
2022-10-26T09:34:31.672Z,67.44
2022-10-26T09:36:58.557Z,67.50
2022-10-26T09:39:45.340Z,64.74
2022-10-26T09:42:38.892Z,65.98
2022-10-26T09:45:25.650Z,64.50
2022-10-26T09:47:54.824Z,66.99
2022-10-26T09:50:28.498Z,65.63
2022-10-26T09:52:55.013Z,67.00
2022-10-26T09:55:21.555Z,66.66
2022-10-26T09:57:52.176Z,64.65
2022-10-26T10:00:21.446Z,65.49
2022-10-26T10:02:53.630Z,61.72
2022-10-26T10:08:20.407Z,62.83
2022-10-26T10:11:07.281Z,60.15
2022-10-26T10:13:37.231Z,64.05
2022-10-26T10:16:10.424Z,63.02
2022-10-26T10:18:38.016Z,63.78
2022-10-26T10:21:05.961Z,63.70
2022-10-26T10:23:36.085Z,63.51
2022-10-26T10:26:09.191Z,61.75
2022-10-26T10:28:35.814Z,63.46
2022-10-26T10:31:05.498Z,61.78
2022-10-26T10:33:33.327Z,61.52
2022-10-26T10:36:00.642Z,61.78
2022-10-26T10:38:27.468Z,61.39
2022-10-26T10:41:00.375Z,60.51
2022-10-26T10:43:27.415Z,61.84
2022-10-26T10:45:59.535Z,61.10
2022-10-26T10:48:29.671Z,60.37
2022-10-26T10:51:01.733Z,60.07
2022-10-26T10:53:36.780Z,59.03
2022-10-26T10:56:19.216Z,61.70
2022-10-26T10:58:57.180Z,59.40
2022-10-26T11:01:31.397Z,60.72
2022-10-26T11:04:22.105Z,59.27
2022-10-26T11:06:50.393Z,61.96
2022-10-26T11:09:20.794Z,60.86
2022-10-26T11:11:55.556Z,56.79
2022-10-26T11:14:35.373Z,56.63
2022-10-26T11:17:22.172Z,57.64
2022-10-26T11:20:02.561Z,55.71
2022-10-26T11:22:35.110Z,58.10
2022-10-26T11:25:16.904Z,56.72
2022-10-26T11:27:49.282Z,56.37
2022-10-26T11:30:22.158Z,56.08
2022-10-26T11:32:52.118Z,56.87
2022-10-26T11:35:30.963Z,54.95
2022-10-26T11:38:28.094Z,55.64
2022-10-26T11:41:21.743Z,56.80
2022-10-26T11:43:54.853Z,57.54
2022-10-26T11:46:28.341Z,57.62
2022-10-26T11:49:00.783Z,56.36
2022-10-26T11:51:30.343Z,56.64
2022-10-26T11:54:01.692Z,57.43
2022-10-26T11:56:35.937Z,55.30
2022-10-26T12:01:57.017Z,54.78
2022-10-26T12:04:29.980Z,55.67
2022-10-26T12:07:01.825Z,54.96
2022-10-26T12:09:35.850Z,54.48
2022-10-26T12:12:19.280Z,55.26
2022-10-26T12:15:03.847Z,54.32
2022-10-26T12:17:55.657Z,54.39
2022-10-26T12:20:48.879Z,53.09
2022-10-26T12:23:23.319Z,55.21
2022-10-26T12:26:28.186Z,53.51
2022-10-26T12:29:03.363Z,52.84
2022-10-26T12:31:33.054Z,51.94
2022-10-26T12:34:00.358Z,54.45
2022-10-26T12:36:56.257Z,53.83
2022-10-26T12:39:36.096Z,54.21
2022-10-26T12:42:05.719Z,53.84
2022-10-26T12:44:34.850Z,54.21
2022-10-26T12:47:01.435Z,56.02
2022-10-26T12:50:05.226Z,54.31
2022-10-26T12:52:51.633Z,55.04
2022-10-26T12:55:39.161Z,56.25
2022-10-26T12:58:42.146Z,55.32
2022-10-26T13:01:22.043Z,55.29
2022-10-26T13:04:19.503Z,55.08
2022-10-26T13:07:07.332Z,55.61
2022-10-26T13:09:33.707Z,58.01
2022-10-26T13:12:02.642Z,56.75
2022-10-26T13:14:39.350Z,56.24
2022-10-26T13:17:17.932Z,55.43
2022-10-26T13:19:49.231Z,54.34
2022-10-26T13:22:19.643Z,55.31
2022-10-26T13:24:55.963Z,53.73
2022-10-26T13:27:27.411Z,55.87
2022-10-26T13:30:03.110Z,54.64
2022-10-26T13:32:39.035Z,53.98
2022-10-26T13:35:12.027Z,56.04
2022-10-26T13:37:46.293Z,54.87
2022-10-26T13:40:17.520Z,54.27
2022-10-26T13:42:54.646Z,52.57
2022-10-26T13:45:30.707Z,54.13
2022-10-26T13:48:18.457Z,51.87
2022-10-26T13:50:49.810Z,55.09
2022-10-26T13:53:45.747Z,53.90
2022-10-26T13:56:22.191Z,54.03
2022-10-26T13:58:55.301Z,53.64
2022-10-26T14:01:23.371Z,54.24
2022-10-26T14:03:50.510Z,55.38
2022-10-26T14:06:26.664Z,52.83
2022-10-26T14:08:57.617Z,54.11
2022-10-26T14:11:32.624Z,53.60
2022-10-26T14:13:59.977Z,54.43
2022-10-26T14:16:30.041Z,53.05
2022-10-26T14:18:56.576Z,54.73
2022-10-26T14:21:23.198Z,54.98
2022-10-26T14:23:53.574Z,54.51
2022-10-26T14:26:38.451Z,54.13
2022-10-26T14:29:16.613Z,54.28
2022-10-26T14:31:43.185Z,55.32
2022-10-26T14:34:13.657Z,55.41
2022-10-26T14:36:46.144Z,54.72
2022-10-26T14:39:32.857Z,54.79
2022-10-26T14:42:05.828Z,55.46
2022-10-26T14:44:32.412Z,56.21
2022-10-26T14:46:59.300Z,56.04
2022-10-26T14:49:27.820Z,56.02
2022-10-26T14:52:05.548Z,54.50
2022-10-26T14:54:33.032Z,56.39
2022-10-26T14:56:59.590Z,56.68
2022-10-26T14:59:28.822Z,56.93
2022-10-26T15:02:15.546Z,55.88
2022-10-26T15:04:57.166Z,56.94
2022-10-26T15:07:23.958Z,57.25
2022-10-26T15:09:52.445Z,57.31
2022-10-26T15:12:38.904Z,55.90
2022-10-26T15:18:25.029Z,56.76
2022-10-26T15:20:53.250Z,57.92
2022-10-26T15:23:21.468Z,58.15
2022-10-26T15:26:01.834Z,57.75
2022-10-26T15:28:38.354Z,57.85
2022-10-26T15:31:12.638Z,58.24
2022-10-26T15:33:41.673Z,58.75
2022-10-26T15:36:08.148Z,59.16
2022-10-26T15:38:35.494Z,59.10
2022-10-26T15:41:03.862Z,59.28
2022-10-26T15:43:30.364Z,59.71
2022-10-26T15:45:57.050Z,59.59
2022-10-26T15:48:28.569Z,59.30
2022-10-26T15:50:55.791Z,60.08
2022-10-26T15:53:25.619Z,60.04
2022-10-26T15:55:53.695Z,60.48
2022-10-26T15:58:20.351Z,60.18
2022-10-26T16:00:46.931Z,60.58
2022-10-26T16:03:16.815Z,60.24
2022-10-26T16:05:43.324Z,60.45
2022-10-26T16:08:17.745Z,60.76
2022-10-26T16:10:45.670Z,60.95
2022-10-26T16:13:13.424Z,61.30
2022-10-26T16:15:40.240Z,61.32
2022-10-26T16:18:07.053Z,61.22
2022-10-26T16:20:33.744Z,61.45
2022-10-26T16:23:00.393Z,61.33
2022-10-26T16:25:27.041Z,61.40
2022-10-26T16:27:55.252Z,61.59
2022-10-26T16:30:24.727Z,61.51
2022-10-26T16:32:53.698Z,61.97
2022-10-26T16:35:20.287Z,62.01
2022-10-26T16:37:46.853Z,62.23
2022-10-26T16:40:13.819Z,62.17
2022-10-26T16:42:40.360Z,62.46
2022-10-26T16:45:06.955Z,62.69
2022-10-26T16:47:33.628Z,62.35
2022-10-26T16:50:00.380Z,62.66
2022-10-26T16:52:26.864Z,62.62
2022-10-26T16:54:53.379Z,62.83
2022-10-26T16:57:19.931Z,62.92
2022-10-26T16:59:46.488Z,63.29
2022-10-26T17:02:14.429Z,63.23
2022-10-26T17:04:40.938Z,62.97
2022-10-26T17:07:07.523Z,63.47
2022-10-26T17:09:34.015Z,63.32
2022-10-26T17:12:02.046Z,63.38
2022-10-26T17:14:29.010Z,63.48
2022-10-26T17:16:55.515Z,63.55
2022-10-26T17:19:22.142Z,63.46
2022-10-26T17:21:48.802Z,63.77
2022-10-26T17:24:18.207Z,63.90
2022-10-26T17:26:44.818Z,63.68
2022-10-26T17:29:12.968Z,63.78
2022-10-26T17:31:39.743Z,63.63
2022-10-26T17:34:06.200Z,63.96
2022-10-26T17:36:32.756Z,63.72
2022-10-26T17:38:59.337Z,63.98
2022-10-26T17:41:25.831Z,63.85
2022-10-26T17:43:54.059Z,64.07
2022-10-26T17:46:35.285Z,63.82
2022-10-26T17:49:02.227Z,64.06
2022-10-26T17:51:33.897Z,64.16
2022-10-26T17:54:09.160Z,63.90
2022-10-26T17:56:36.178Z,64.33
2022-10-26T17:59:06.032Z,64.28
2022-10-26T18:01:32.939Z,64.17
2022-10-26T18:03:59.519Z,64.19
2022-10-26T18:06:26.350Z,64.17
2022-10-26T18:08:53.039Z,64.24
2022-10-26T18:11:26.437Z,64.08
2022-10-26T18:13:54.962Z,63.96
2022-10-26T18:16:22.622Z,63.97
2022-10-26T18:18:53.862Z,64.28
2022-10-26T18:24:51.548Z,64.24
2022-10-26T18:27:18.272Z,64.33
2022-10-26T18:29:44.830Z,64.57
2022-10-26T18:32:11.306Z,64.39
2022-10-26T18:34:37.886Z,64.41
2022-10-26T18:37:04.315Z,64.63
2022-10-26T18:39:30.892Z,64.44
2022-10-26T18:41:57.397Z,64.47
2022-10-26T18:44:24.021Z,64.68
2022-10-26T18:46:50.602Z,64.61
2022-10-26T18:49:18.125Z,64.61
2022-10-26T18:51:45.076Z,64.22
2022-10-26T18:54:12.193Z,64.37
2022-10-26T18:56:38.840Z,64.38
2022-10-26T18:59:05.666Z,64.74
2022-10-26T19:01:34.633Z,64.81
2022-10-26T19:04:06.970Z,65.08
2022-10-26T19:06:38.945Z,64.90
2022-10-26T19:09:06.986Z,65.27
2022-10-26T19:11:34.354Z,65.35
2022-10-26T19:14:01.104Z,65.25
2022-10-26T19:16:47.218Z,65.37
2022-10-26T19:19:15.421Z,65.27
2022-10-26T19:21:46.655Z,65.52
2022-10-26T19:24:17.675Z,65.42
2022-10-26T19:26:45.609Z,65.25
2022-10-26T19:29:14.552Z,65.40
2022-10-26T19:31:41.888Z,65.28
2022-10-26T19:34:11.404Z,65.44
2022-10-26T19:36:38.247Z,65.51
2022-10-26T19:39:05.082Z,65.30
2022-10-26T19:41:31.628Z,65.35
2022-10-26T19:46:27.925Z,65.32
2022-10-26T19:48:57.034Z,65.28
2022-10-26T19:51:24.959Z,65.41
2022-10-26T19:53:51.643Z,65.49
2022-10-26T19:56:18.639Z,65.32
2022-10-26T19:58:45.103Z,65.55
2022-10-26T20:01:13.425Z,65.63
2022-10-26T20:03:40.827Z,65.46
2022-10-26T20:06:09.324Z,65.47
2022-10-26T20:08:35.801Z,65.58
2022-10-26T20:11:03.122Z,65.51
2022-10-26T20:13:29.837Z,65.55
2022-10-26T20:15:56.389Z,65.53
2022-10-26T20:18:22.962Z,65.76
2022-10-26T20:20:49.484Z,65.77
2022-10-26T20:23:15.987Z,65.80
2022-10-26T20:25:48.137Z,65.70
2022-10-26T20:28:16.235Z,65.74
2022-10-26T20:30:43.780Z,65.91
2022-10-26T20:33:11.205Z,65.77
2022-10-26T20:35:38.458Z,65.72
2022-10-26T20:38:06.950Z,65.78
2022-10-26T20:40:34.641Z,65.90
2022-10-26T20:43:01.417Z,65.89
2022-10-26T20:45:32.372Z,65.88
2022-10-26T20:48:00.517Z,65.77
2022-10-26T20:50:28.610Z,65.81
2022-10-26T20:53:09.038Z,65.89
2022-10-26T20:56:02.198Z,65.76
2022-10-26T20:58:40.991Z,66.00
2022-10-26T21:01:25.264Z,66.09
2022-10-26T21:03:53.283Z,65.86
2022-10-26T21:06:20.304Z,66.11
2022-10-26T21:08:49.187Z,66.37
2022-10-26T21:11:16.885Z,66.09
2022-10-26T21:13:45.729Z,66.24
2022-10-26T21:16:12.750Z,66.29
2022-10-26T21:18:39.748Z,66.40
2022-10-26T21:21:06.819Z,66.26
2022-10-26T21:23:35.547Z,66.15
2022-10-26T21:26:03.143Z,66.39
2022-10-26T21:28:34.667Z,66.03
2022-10-26T21:31:05.438Z,66.24
2022-10-26T21:33:32.011Z,66.07
2022-10-26T21:36:03.273Z,66.37
2022-10-26T21:38:31.434Z,66.14
2022-10-26T21:41:04.430Z,66.24
2022-10-26T21:43:31.854Z,66.37
2022-10-26T21:45:59.411Z,66.45
2022-10-26T21:48:27.353Z,66.60
2022-10-26T21:50:54.068Z,66.55
2022-10-26T21:53:20.859Z,66.56
2022-10-26T21:55:47.714Z,66.61
2022-10-26T21:58:17.318Z,66.57
2022-10-26T22:00:43.858Z,66.72
2022-10-26T22:03:10.346Z,66.72
2022-10-26T22:05:36.838Z,66.65
2022-10-26T22:08:03.579Z,66.64
2022-10-26T22:10:30.036Z,66.65
2022-10-26T22:12:58.627Z,66.57
2022-10-26T22:15:25.184Z,66.59
2022-10-26T22:17:54.632Z,66.50
2022-10-26T22:20:21.143Z,66.41
2022-10-26T22:22:47.637Z,66.55
2022-10-26T22:25:14.086Z,66.62
2022-10-26T22:27:40.617Z,66.51
2022-10-26T22:30:07.921Z,66.42
2022-10-26T22:32:34.394Z,66.54
2022-10-26T22:35:30.411Z,66.68
2022-10-26T22:37:47.432Z,66.64
2022-10-26T22:40:13.962Z,66.65
2022-10-26T22:42:40.507Z,66.61
2022-10-26T22:45:07.640Z,66.57
2022-10-26T22:47:34.213Z,66.66
2022-10-26T22:50:00.677Z,66.67
2022-10-26T22:52:27.516Z,66.72
2022-10-26T22:54:54.026Z,66.75
2022-10-26T22:57:20.497Z,66.69
2022-10-26T22:59:47.030Z,66.72
2022-10-26T23:02:13.740Z,66.78
2022-10-26T23:04:40.358Z,66.88
2022-10-26T23:07:06.943Z,66.71
2022-10-26T23:09:33.461Z,66.73
2022-10-26T23:12:00.010Z,66.94
2022-10-26T23:14:26.790Z,66.88
2022-10-26T23:16:53.272Z,66.81
2022-10-26T23:19:19.851Z,66.94
2022-10-26T23:21:46.387Z,67.09
2022-10-26T23:24:12.824Z,66.94
2022-10-26T23:26:39.351Z,67.08
2022-10-26T23:29:05.924Z,67.23
2022-10-26T23:31:32.416Z,67.06
2022-10-26T23:33:58.942Z,67.15
2022-10-26T23:36:25.633Z,67.00
2022-10-26T23:38:52.088Z,67.01
2022-10-26T23:41:18.668Z,67.07
2022-10-26T23:43:45.189Z,66.88
2022-10-26T23:46:11.851Z,67.05
2022-10-26T23:48:38.446Z,67.25
2022-10-26T23:51:05.208Z,67.04
2022-10-26T23:53:31.765Z,66.92
2022-10-26T23:55:58.288Z,66.95
2022-10-26T23:58:24.820Z,66.78
